Flugplatz Hoppstädten-Weiersbach (EDRH)

Hier findest Du alle Informationen zum Flugplatz Hoppstädten-Weiersbach (EDRH).

Informationen für Piloten zum Flugplatz Hoppstädten-Weiersbach

Hier findest Du alle relevanten Informationen, die Du als Pilot benötigst, um Hoppstädten-Weiersbach anzufliegen.

Flugplatz: Hoppstädten-Weiersbach ICAO-Code: EDRH
Frequenz Turm: 130,650 Mhz GAFOR Gebiet: 44
Frequenz Ground: 130,650 Mhz Mogas: nein
Platzrunde: N 2100 ft Landegebühr: 3 €
Platzhöhe: 1.093 ft Sunrise: 03:44 Uhr UTC
Pisten: 06/24 - 670 m x 21 m, ASPH Sunset: 19:31 Uhr UTC

Mitglieder, die in Hoppstädten-Weiersbach fliegen

Flugwetter am Flugplatz Hoppstädten-Weiersbach

Die METAR Information stammen aus EDFH (37.87 km entfernt).

METAR Code:
2024/05/30 07:20
EDFH 300720Z 26009KT 230V290 9000 BKN003 11/11 Q1006

Flugschulen am Flugplatz Hoppstädten-Weiersbach

Am Flugplatz Hoppstädten-Weiersbach gibt es leider keine Flugschule.

Benachbarte Flugplätze und Flugschulen

Es gibt 24 weitere Flugplätze in einem Umkreis von 50 km um den Flugplatz Hoppstädten-Weiersbach.

Jetzt anmelden

Passwort vergessen

Umfrage Archiv

Wie häufig haltet Ihr die Halbkreisflugregel ein?

Eher häufig!
36.4 %
Immer!
30.2 %
Hin und wieder!
17.1 %
Nie!
9.5 %
Eher selten!
6.9 %
Stimmen: 275 | Diskussion
Anzeige: Roland Aircraft
Statistik Alle Mitglieder

Aktuell sind 22 Besucher online.

Anzeige: EasyVFR